sensor_id;sensor_type;location;lat;lon;timestamp;pressure;altitude;pressure_sealevel;temperature;humidity
37132;BME280;23035;50.032;21.978;2023-08-31T00:01:29;66928.84;;;16.67;100.00
37132;BME280;23035;50.032;21.978;2023-08-31T00:06:33;66954.13;;;16.88;100.00
37132;BME280;23035;50.032;21.978;2023-08-31T00:11:38;66907.38;;;16.49;100.00
37132;BME280;23035;50.032;21.978;2023-08-31T00:16:43;66870.75;;;16.15;100.00
37132;BME280;23035;50.032;21.978;2023-08-31T00:21:48;66897.13;;;16.40;100.00
37132;BME280;23035;50.032;21.978;2023-08-31T00:26:53;66872.69;;;16.09;100.00
37132;BME280;23035;50.032;21.978;2023-08-31T00:31:57;66873.59;;;16.22;100.00
37132;BME280;23035;50.032;21.978;2023-08-31T00:37:02;66959.66;;;16.99;100.00
37132;BME280;23035;50.032;21.978;2023-08-31T00:42:07;66908.44;;;16.50;100.00
37132;BME280;23035;50.032;21.978;2023-08-31T00:47:11;66894.38;;;16.34;100.00
37132;BME280;23035;50.032;21.978;2023-08-31T00:52:15;66901.91;;;16.42;100.00
37132;BME280;23035;50.032;21.978;2023-08-31T00:57:24;66915.94;;;16.55;100.00
37132;BME280;23035;50.032;21.978;2023-08-31T01:02:30;66962.75;;;16.97;100.00
37132;BME280;23035;50.032;21.978;2023-08-31T01:07:52;66894.44;;;16.37;100.00
37132;BME280;23035;50.032;21.978;2023-08-31T01:13:03;67005.56;;;17.44;100.00
37132;BME280;23035;50.032;21.978;2023-08-31T01:18:08;66950.50;;;16.90;100.00
37132;BME280;23035;50.032;21.978;2023-08-31T01:23:15;66883.69;;;16.27;100.00
37132;BME280;23035;50.032;21.978;2023-08-31T01:28:21;66889.00;;;16.29;100.00
37132;BME280;23035;50.032;21.978;2023-08-31T01:33:25;66860.38;;;16.00;100.00
37132;BME280;23035;50.032;21.978;2023-08-31T01:38:30;66894.38;;;16.34;100.00
37132;BME280;23035;50.032;21.978;2023-08-31T01:43:39;66845.97;;;15.91;100.00
37132;BME280;23035;50.032;21.978;2023-08-31T01:48:44;66841.06;;;15.84;100.00
37132;BME280;23035;50.032;21.978;2023-08-31T01:53:49;66807.72;;;15.55;100.00
37132;BME280;23035;50.032;21.978;2023-08-31T01:58:54;66821.13;;;15.65;100.00
37132;BME280;23035;50.032;21.978;2023-08-31T02:03:58;66817.91;;;15.62;100.00
37132;BME280;23035;50.032;21.978;2023-08-31T02:09:03;66771.28;;;15.26;100.00
37132;BME280;23035;50.032;21.978;2023-08-31T02:14:09;66798.59;;;15.46;100.00
37132;BME280;23035;50.032;21.978;2023-08-31T02:19:13;66869.59;;;16.11;100.00
37132;BME280;23035;50.032;21.978;2023-08-31T02:24:19;66843.28;;;15.89;100.00
37132;BME280;23035;50.032;21.978;2023-08-31T02:29:24;66844.81;;;15.88;100.00
37132;BME280;23035;50.032;21.978;2023-08-31T02:34:28;66813.13;;;15.60;100.00
37132;BME280;23035;50.032;21.978;2023-08-31T02:39:31;66822.22;;;15.66;100.00
37132;BME280;23035;50.032;21.978;2023-08-31T02:44:38;66831.44;;;15.77;100.00
37132;BME280;23035;50.032;21.978;2023-08-31T02:49:42;66873.28;;;16.12;100.00
37132;BME280;23035;50.032;21.978;2023-08-31T02:54:46;66843.81;;;15.89;100.00
37132;BME280;23035;50.032;21.978;2023-08-31T02:59:52;66825.44;;;15.69;100.00
37132;BME280;23035;50.032;21.978;2023-08-31T03:04:56;66801.72;;;15.47;100.00
37132;BME280;23035;50.032;21.978;2023-08-31T03:10:03;66849.13;;;15.92;100.00
37132;BME280;23035;50.032;21.978;2023-08-31T03:15:11;66859.44;;;16.04;100.00
37132;BME280;23035;50.032;21.978;2023-08-31T03:20:19;66924.09;;;16.65;100.00
37132;BME280;23035;50.032;21.978;2023-08-31T03:25:27;66813.13;;;15.60;100.00
37132;BME280;23035;50.032;21.978;2023-08-31T03:30:36;66811.44;;;15.56;100.00
37132;BME280;23035;50.032;21.978;2023-08-31T03:35:43;66845.38;;;15.88;100.00
37132;BME280;23035;50.032;21.978;2023-08-31T03:40:53;66793.66;;;15.39;100.00
37132;BME280;23035;50.032;21.978;2023-08-31T03:46:01;66771.13;;;15.20;100.00
37132;BME280;23035;50.032;21.978;2023-08-31T03:51:06;66745.38;;;14.99;100.00
37132;BME280;23035;50.032;21.978;2023-08-31T03:56:11;66743.13;;;14.94;100.00
37132;BME280;23035;50.032;21.978;2023-08-31T04:01:17;66822.88;;;15.72;100.00
37132;BME280;23035;50.032;21.978;2023-08-31T04:06:22;66755.00;;;15.05;100.00
37132;BME280;23035;50.032;21.978;2023-08-31T04:11:26;66761.91;;;15.09;100.00
37132;BME280;23035;50.032;21.978;2023-08-31T04:16:32;66816.28;;;15.61;100.00
37132;BME280;23035;50.032;21.978;2023-08-31T04:21:36;66804.59;;;15.55;100.00
37132;BME280;23035;50.032;21.978;2023-08-31T04:26:41;66837.44;;;15.86;100.00
37132;BME280;23035;50.032;21.978;2023-08-31T04:31:49;66906.22;;;16.46;100.00
37132;BME280;23035;50.032;21.978;2023-08-31T04:36:56;66934.88;;;16.75;100.00
37132;BME280;23035;50.032;21.978;2023-08-31T04:42:03;66826.59;;;15.73;100.00
37132;BME280;23035;50.032;21.978;2023-08-31T04:47:12;66848.69;;;15.94;100.00
37132;BME280;23035;50.032;21.978;2023-08-31T04:52:19;66817.34;;;15.62;100.00
37132;BME280;23035;50.032;21.978;2023-08-31T04:57:26;66903.00;;;16.43;100.00
37132;BME280;23035;50.032;21.978;2023-08-31T05:02:34;66999.47;;;17.34;100.00
37132;BME280;23035;50.032;21.978;2023-08-31T05:07:41;66997.88;;;17.32;100.00
37132;BME280;23035;50.032;21.978;2023-08-31T05:12:48;66946.19;;;16.86;100.00
37132;BME280;23035;50.032;21.978;2023-08-31T05:17:55;67000.16;;;17.39;100.00
37132;BME280;23035;50.032;21.978;2023-08-31T05:22:59;67018.91;;;17.52;100.00
37132;BME280;23035;50.032;21.978;2023-08-31T05:28:03;66919.09;;;16.55;100.00
37132;BME280;23035;50.032;21.978;2023-08-31T05:33:09;66940.78;;;16.81;100.00
37132;BME280;23035;50.032;21.978;2023-08-31T05:38:13;66885.91;;;16.31;100.00
37132;BME280;23035;50.032;21.978;2023-08-31T05:43:17;66871.91;;;16.18;100.00
37132;BME280;23035;50.032;21.978;2023-08-31T05:48:23;66902.53;;;16.45;100.00
37132;BME280;23035;50.032;21.978;2023-08-31T05:53:27;66862.81;;;16.12;100.00
37132;BME280;23035;50.032;21.978;2023-08-31T05:58:31;66890.28;;;16.38;100.00
37132;BME280;23035;50.032;21.978;2023-08-31T06:03:37;66941.88;;;16.82;100.00
37132;BME280;23035;50.032;21.978;2023-08-31T06:08:41;66986.09;;;17.24;100.00
37132;BME280;23035;50.032;21.978;2023-08-31T06:13:46;67006.56;;;17.43;100.00
37132;BME280;23035;50.032;21.978;2023-08-31T06:18:51;66995.25;;;17.32;100.00
37132;BME280;23035;50.032;21.978;2023-08-31T06:23:55;66989.84;;;17.27;100.00
37132;BME280;23035;50.032;21.978;2023-08-31T06:28:59;66953.81;;;16.96;100.00
37132;BME280;23035;50.032;21.978;2023-08-31T06:34:04;66900.38;;;16.43;100.00
37132;BME280;23035;50.032;21.978;2023-08-31T06:39:08;66864.88;;;16.12;100.00
37132;BME280;23035;50.032;21.978;2023-08-31T06:44:12;66822.22;;;15.66;100.00
37132;BME280;23035;50.032;21.978;2023-08-31T06:49:18;66812.03;;;15.59;100.00
37132;BME280;23035;50.032;21.978;2023-08-31T06:54:22;66908.44;;;16.50;100.00
37132;BME280;23035;50.032;21.978;2023-08-31T06:59:26;66948.28;;;16.85;100.00
37132;BME280;23035;50.032;21.978;2023-08-31T07:04:32;66932.25;;;16.75;100.00
37132;BME280;23035;50.032;21.978;2023-08-31T07:09:36;66964.53;;;17.03;100.00
37132;BME280;23035;50.032;21.978;2023-08-31T07:14:39;67004.94;;;17.41;100.00
37132;BME280;23035;50.032;21.978;2023-08-31T07:19:45;66980.06;;;17.15;100.00
37132;BME280;23035;50.032;21.978;2023-08-31T07:24:49;67055.72;;;17.92;100.00
37132;BME280;23035;50.032;21.978;2023-08-31T07:29:54;66984.00;;;17.24;100.00
37132;BME280;23035;50.032;21.978;2023-08-31T07:35:01;67028.72;;;17.66;100.00
37132;BME280;23035;50.032;21.978;2023-08-31T07:40:07;66971.59;;;17.12;100.00
37132;BME280;23035;50.032;21.978;2023-08-31T07:45:12;66953.22;;;16.92;100.00
37132;BME280;23035;50.032;21.978;2023-08-31T07:50:18;67092.38;;;18.26;100.00
37132;BME280;23035;50.032;21.978;2023-08-31T07:55:22;67039.47;;;17.74;100.00
37132;BME280;23035;50.032;21.978;2023-08-31T08:00:26;66998.63;;;17.40;100.00
37132;BME280;23035;50.032;21.978;2023-08-31T08:05:32;67131.66;;;18.58;100.00
37132;BME280;23035;50.032;21.978;2023-08-31T08:10:36;67143.53;;;18.70;100.00
37132;BME280;23035;50.032;21.978;2023-08-31T08:15:40;67070.28;;;18.05;100.00
37132;BME280;23035;50.032;21.978;2023-08-31T08:20:48;66973.53;;;17.07;100.00
37132;BME280;23035;50.032;21.978;2023-08-31T08:25:59;66894.03;;;16.42;100.00
37132;BME280;23035;50.032;21.978;2023-08-31T08:31:03;66928.25;;;16.64;100.00
37132;BME280;23035;50.032;21.978;2023-08-31T08:36:09;66942.44;;;16.82;100.00
37132;BME280;23035;50.032;21.978;2023-08-31T08:41:13;67003.88;;;17.40;100.00
37132;BME280;23035;50.032;21.978;2023-08-31T08:46:18;67021.66;;;17.57;100.00
37132;BME280;23035;50.032;21.978;2023-08-31T08:51:24;67013.66;;;17.52;100.00
37132;BME280;23035;50.032;21.978;2023-08-31T08:56:28;67070.28;;;18.05;100.00
37132;BME280;23035;50.032;21.978;2023-08-31T09:01:32;66983.38;;;17.21;100.00
37132;BME280;23035;50.032;21.978;2023-08-31T09:06:38;66985.06;;;17.25;100.00
37132;BME280;23035;50.032;21.978;2023-08-31T09:11:42;67063.19;;;17.96;100.00
37132;BME280;23035;50.032;21.978;2023-08-31T09:16:47;67006.09;;;17.45;100.00
37132;BME280;23035;50.032;21.978;2023-08-31T09:21:55;66987.22;;;17.27;100.00
37132;BME280;23035;50.032;21.978;2023-08-31T09:26:59;67088.06;;;18.22;100.00
37132;BME280;23035;50.032;21.978;2023-08-31T09:32:03;67069.06;;;17.99;100.00
37132;BME280;23035;50.032;21.978;2023-08-31T09:37:09;67173.81;;;19.01;100.00
37132;BME280;23035;50.032;21.978;2023-08-31T09:42:16;67191.00;;;19.14;100.00
37132;BME280;23035;50.032;21.978;2023-08-31T09:47:22;67126.84;;;18.56;100.00
37132;BME280;23035;50.032;21.978;2023-08-31T09:52:31;67315.84;;;20.34;100.00
37132;BME280;23035;50.032;21.978;2023-08-31T09:57:35;67381.25;;;20.96;100.00
37132;BME280;23035;50.032;21.978;2023-08-31T10:02:49;67306.66;;;20.26;100.00
37132;BME280;23035;50.032;21.978;2023-08-31T10:07:55;67391.44;;;21.03;100.00
37132;BME280;23035;50.032;21.978;2023-08-31T10:12:59;67435.25;;;21.44;100.00
37132;BME280;23035;50.032;21.978;2023-08-31T10:18:04;67482.97;;;21.94;100.00
37132;BME280;23035;50.032;21.978;2023-08-31T10:23:10;67589.63;;;22.97;93.17
37132;BME280;23035;50.032;21.978;2023-08-31T10:28:18;67344.56;;;20.64;100.00
37132;BME280;23035;50.032;21.978;2023-08-31T10:33:22;67366.59;;;20.80;100.00
37132;BME280;23035;50.032;21.978;2023-08-31T10:38:29;67371.09;;;20.91;100.00
37132;BME280;23035;50.032;21.978;2023-08-31T10:43:43;67216.56;;;19.46;100.00
37132;BME280;23035;50.032;21.978;2023-08-31T10:48:49;67185.28;;;19.16;100.00
37132;BME280;23035;50.032;21.978;2023-08-31T10:54:07;67155.47;;;18.83;100.00
37132;BME280;23035;50.032;21.978;2023-08-31T10:59:13;67194.38;;;19.23;100.00
37132;BME280;23035;50.032;21.978;2023-08-31T11:04:17;67213.81;;;19.41;100.00
37132;BME280;23035;50.032;21.978;2023-08-31T11:09:23;67175.97;;;19.03;100.00
37132;BME280;23035;50.032;21.978;2023-08-31T11:14:27;67174.47;;;19.06;100.00
37132;BME280;23035;50.032;21.978;2023-08-31T11:19:32;67220.78;;;19.45;100.00
37132;BME280;23035;50.032;21.978;2023-08-31T11:24:37;67243.81;;;19.59;100.00
37132;BME280;23035;50.032;21.978;2023-08-31T11:29:42;67312.59;;;20.31;100.00
37132;BME280;23035;50.032;21.978;2023-08-31T11:34:46;67367.19;;;20.83;100.00
37132;BME280;23035;50.032;21.978;2023-08-31T11:39:52;67235.38;;;19.59;100.00
37132;BME280;23035;50.032;21.978;2023-08-31T11:44:56;67207.34;;;19.35;100.00
37132;BME280;23035;50.032;21.978;2023-08-31T11:50:00;67347.81;;;20.67;100.00
37132;BME280;23035;50.032;21.978;2023-08-31T11:55:11;67325.72;;;20.49;100.00
37132;BME280;23035;50.032;21.978;2023-08-31T12:00:16;67473.72;;;21.83;100.00
37132;BME280;23035;50.032;21.978;2023-08-31T12:05:20;67371.09;;;20.91;100.00
37132;BME280;23035;50.032;21.978;2023-08-31T12:10:26;67414.28;;;21.30;100.00
37132;BME280;23035;50.032;21.978;2023-08-31T12:15:30;67423.44;;;21.36;100.00
37132;BME280;23035;50.032;21.978;2023-08-31T12:20:34;67469.31;;;21.76;100.00
37132;BME280;23035;50.032;21.978;2023-08-31T12:25:48;67459.63;;;21.70;100.00
37132;BME280;23035;50.032;21.978;2023-08-31T12:30:54;67419.22;;;21.37;99.76
37132;BME280;23035;50.032;21.978;2023-08-31T12:35:59;67401.91;;;21.20;100.00
37132;BME280;23035;50.032;21.978;2023-08-31T12:41:08;67452.19;;;21.68;92.32
37132;BME280;23035;50.032;21.978;2023-08-31T12:46:16;67559.25;;;22.66;84.43
37132;BME280;23035;50.032;21.978;2023-08-31T12:51:21;67514.44;;;22.29;87.18
37132;BME280;23035;50.032;21.978;2023-08-31T12:56:26;67439.09;;;21.51;99.13
37132;BME280;23035;50.032;21.978;2023-08-31T13:01:30;67450.44;;;21.61;98.69
37132;BME280;23035;50.032;21.978;2023-08-31T13:06:35;67526.19;;;22.32;95.59
37132;BME280;23035;50.032;21.978;2023-08-31T13:11:42;67350.97;;;20.68;100.00
37132;BME280;23035;50.032;21.978;2023-08-31T13:16:49;67382.44;;;21.02;100.00
37132;BME280;23035;50.032;21.978;2023-08-31T13:21:53;67289.44;;;20.12;100.00
37132;BME280;23035;50.032;21.978;2023-08-31T13:26:58;67214.31;;;19.39;100.00
37132;BME280;23035;50.032;21.978;2023-08-31T13:32:02;67309.41;;;20.31;100.00
37132;BME280;23035;50.032;21.978;2023-08-31T13:37:06;67336.88;;;20.52;100.00
37132;BME280;23035;50.032;21.978;2023-08-31T13:42:12;67298.09;;;20.20;100.00
37132;BME280;23035;50.032;21.978;2023-08-31T13:47:19;67229.50;;;19.56;100.00
37132;BME280;23035;50.032;21.978;2023-08-31T13:52:36;67150.13;;;18.81;100.00
37132;BME280;23035;50.032;21.978;2023-08-31T13:57:42;67110.78;;;18.46;100.00
37132;BME280;23035;50.032;21.978;2023-08-31T14:02:46;67201.28;;;19.24;100.00
37132;BME280;23035;50.032;21.978;2023-08-31T14:07:50;67166.25;;;18.94;100.00
37132;BME280;23035;50.032;21.978;2023-08-31T14:12:56;67311.56;;;20.33;100.00
37132;BME280;23035;50.032;21.978;2023-08-31T14:17:59;67274.31;;;19.98;100.00
37132;BME280;23035;50.032;21.978;2023-08-31T14:23:03;67462.78;;;21.68;100.00
37132;BME280;23035;50.032;21.978;2023-08-31T14:28:11;67444.06;;;21.60;100.00
37132;BME280;23035;50.032;21.978;2023-08-31T14:33:15;67424.56;;;21.39;100.00
37132;BME280;23035;50.032;21.978;2023-08-31T14:38:20;67463.38;;;21.71;100.00
37132;BME280;23035;50.032;21.978;2023-08-31T14:43:26;67408.19;;;21.19;100.00
37132;BME280;23035;50.032;21.978;2023-08-31T14:48:29;67469.44;;;21.82;100.00
37132;BME280;23035;50.032;21.978;2023-08-31T14:53:34;67365.69;;;20.86;100.00
37132;BME280;23035;50.032;21.978;2023-08-31T14:58:39;67398.53;;;21.12;100.00
37132;BME280;23035;50.032;21.978;2023-08-31T15:03:43;67373.25;;;20.94;100.00
37132;BME280;23035;50.032;21.978;2023-08-31T15:08:47;67385.06;;;21.02;100.00
37132;BME280;23035;50.032;21.978;2023-08-31T15:13:52;67433.69;;;21.45;100.00
37132;BME280;23035;50.032;21.978;2023-08-31T15:18:56;67436.88;;;21.46;100.00
37132;BME280;23035;50.032;21.978;2023-08-31T15:23:59;67400.63;;;21.12;100.00
37132;BME280;23035;50.032;21.978;2023-08-31T15:29:05;67345.66;;;20.65;100.00
37132;BME280;23035;50.032;21.978;2023-08-31T15:34:09;67465.66;;;21.78;100.00
37132;BME280;23035;50.032;21.978;2023-08-31T15:39:13;67460.72;;;21.71;100.00
37132;BME280;23035;50.032;21.978;2023-08-31T15:44:18;67405.63;;;21.22;100.00
37132;BME280;23035;50.032;21.978;2023-08-31T15:49:22;67397.53;;;21.14;100.00
37132;BME280;23035;50.032;21.978;2023-08-31T15:54:26;67608.97;;;23.10;99.57
37132;BME280;23035;50.032;21.978;2023-08-31T15:59:33;67692.44;;;23.91;89.93
37132;BME280;23035;50.032;21.978;2023-08-31T16:04:36;67733.16;;;24.35;86.74
37132;BME280;23035;50.032;21.978;2023-08-31T16:09:40;67723.22;;;24.18;83.25
37132;BME280;23035;50.032;21.978;2023-08-31T16:14:47;67677.81;;;23.78;83.63
37132;BME280;23035;50.032;21.978;2023-08-31T16:19:53;67675.63;;;23.75;87.81
37132;BME280;23035;50.032;21.978;2023-08-31T16:24:58;67571.13;;;22.77;94.75
37132;BME280;23035;50.032;21.978;2023-08-31T16:30:05;67637.72;;;23.40;87.19
37132;BME280;23035;50.032;21.978;2023-08-31T16:35:11;67633.84;;;23.31;89.55
37132;BME280;23035;50.032;21.978;2023-08-31T16:40:16;67522.94;;;22.29;96.93
37132;BME280;23035;50.032;21.978;2023-08-31T16:45:23;67425.03;;;21.37;100.00
37132;BME280;23035;50.032;21.978;2023-08-31T16:50:30;67431.16;;;21.51;100.00
37132;BME280;23035;50.032;21.978;2023-08-31T16:55:36;67332.66;;;20.53;100.00
37132;BME280;23035;50.032;21.978;2023-08-31T17:00:42;67287.22;;;20.08;100.00
37132;BME280;23035;50.032;21.978;2023-08-31T17:05:50;67245.63;;;19.68;100.00
37132;BME280;23035;50.032;21.978;2023-08-31T17:10:54;67302.88;;;20.22;100.00
37132;BME280;23035;50.032;21.978;2023-08-31T17:15:59;67184.66;;;19.13;100.00
37132;BME280;23035;50.032;21.978;2023-08-31T17:21:04;67184.13;;;19.13;100.00
37132;BME280;23035;50.032;21.978;2023-08-31T17:26:08;67189.47;;;19.15;100.00
37132;BME280;23035;50.032;21.978;2023-08-31T17:31:15;67161.53;;;18.94;100.00
37132;BME280;23035;50.032;21.978;2023-08-31T17:36:19;67147.38;;;18.76;100.00
37132;BME280;23035;50.032;21.978;2023-08-31T17:41:25;67207.81;;;19.33;100.00
37132;BME280;23035;50.032;21.978;2023-08-31T17:46:30;67171.13;;;18.98;100.00
37132;BME280;23035;50.032;21.978;2023-08-31T17:51:34;67197.03;;;19.23;100.00
37132;BME280;23035;50.032;21.978;2023-08-31T17:56:38;67179.75;;;19.06;100.00
37132;BME280;23035;50.032;21.978;2023-08-31T18:01:43;67156.69;;;18.89;100.00
37132;BME280;23035;50.032;21.978;2023-08-31T18:06:49;67125.81;;;18.58;100.00
37132;BME280;23035;50.032;21.978;2023-08-31T18:11:54;67125.75;;;18.55;100.00
37132;BME280;23035;50.032;21.978;2023-08-31T18:16:59;67103.25;;;18.39;100.00
37132;BME280;23035;50.032;21.978;2023-08-31T18:22:03;67138.88;;;18.73;100.00
37132;BME280;23035;50.032;21.978;2023-08-31T18:27:07;67211.13;;;19.38;100.00
37132;BME280;23035;50.032;21.978;2023-08-31T18:32:14;67000.78;;;17.42;100.00
37132;BME280;23035;50.032;21.978;2023-08-31T18:37:18;66936.50;;;16.77;100.00
37132;BME280;23035;50.032;21.978;2023-08-31T18:42:22;66953.81;;;16.96;100.00
37132;BME280;23035;50.032;21.978;2023-08-31T18:47:28;66965.59;;;17.04;100.00
37132;BME280;23035;50.032;21.978;2023-08-31T18:52:32;66933.19;;;16.71;100.00
37132;BME280;23035;50.032;21.978;2023-08-31T18:57:36;66899.91;;;16.45;100.00
37132;BME280;23035;50.032;21.978;2023-08-31T19:02:43;66862.06;;;16.04;100.00
37132;BME280;23035;50.032;21.978;2023-08-31T19:07:51;66846.50;;;15.92;100.00
37132;BME280;23035;50.032;21.978;2023-08-31T19:12:58;66840.06;;;15.86;100.00
37132;BME280;23035;50.032;21.978;2023-08-31T19:18:11;66975.38;;;17.16;100.00
37132;BME280;23035;50.032;21.978;2023-08-31T19:23:15;66960.72;;;17.00;100.00
37132;BME280;23035;50.032;21.978;2023-08-31T19:28:21;66992.94;;;17.25;100.00
37132;BME280;23035;50.032;21.978;2023-08-31T19:33:26;66972.63;;;17.11;100.00
37132;BME280;23035;50.032;21.978;2023-08-31T19:38:33;67029.22;;;17.64;100.00
37132;BME280;23035;50.032;21.978;2023-08-31T19:43:39;67075.69;;;18.11;100.00
37132;BME280;23035;50.032;21.978;2023-08-31T19:48:44;66911.16;;;16.53;100.00
37132;BME280;23035;50.032;21.978;2023-08-31T19:53:48;66962.44;;;17.04;100.00
37132;BME280;23035;50.032;21.978;2023-08-31T19:58:52;66909.06;;;16.53;100.00
37132;BME280;23035;50.032;21.978;2023-08-31T20:04:02;66995.69;;;17.30;100.00
37132;BME280;23035;50.032;21.978;2023-08-31T20:09:07;67002.78;;;17.39;100.00
37132;BME280;23035;50.032;21.978;2023-08-31T20:14:12;66970.53;;;17.11;100.00
37132;BME280;23035;50.032;21.978;2023-08-31T20:19:17;66947.69;;;16.82;100.00
37132;BME280;23035;50.032;21.978;2023-08-31T20:24:21;66973.16;;;17.11;100.00
37132;BME280;23035;50.032;21.978;2023-08-31T20:29:25;66968.34;;;17.09;100.00
37132;BME280;23035;50.032;21.978;2023-08-31T20:34:30;66931.19;;;16.74;100.00
37132;BME280;23035;50.032;21.978;2023-08-31T20:39:33;66789.50;;;15.40;100.00
37132;BME280;23035;50.032;21.978;2023-08-31T20:44:40;66806.19;;;15.56;100.00
37132;BME280;23035;50.032;21.978;2023-08-31T20:49:46;66801.25;;;15.49;100.00
37132;BME280;23035;50.032;21.978;2023-08-31T20:54:49;66819.00;;;15.63;100.00
37132;BME280;23035;50.032;21.978;2023-08-31T20:59:57;66792.56;;;15.38;100.00
37132;BME280;23035;50.032;21.978;2023-08-31T21:05:02;66803.56;;;15.56;100.00
37132;BME280;23035;50.032;21.978;2023-08-31T21:10:07;66836.28;;;15.82;100.00
37132;BME280;23035;50.032;21.978;2023-08-31T21:15:11;66773.91;;;15.26;100.00
37132;BME280;23035;50.032;21.978;2023-08-31T21:20:16;66759.28;;;15.09;100.00
37132;BME280;23035;50.032;21.978;2023-08-31T21:25:20;66701.25;;;14.57;100.00
37132;BME280;23035;50.032;21.978;2023-08-31T21:30:24;66697.41;;;14.51;100.00
37132;BME280;23035;50.032;21.978;2023-08-31T21:35:31;66770.66;;;15.23;100.00
37132;BME280;23035;50.032;21.978;2023-08-31T21:40:35;66865.34;;;16.10;100.00
37132;BME280;23035;50.032;21.978;2023-08-31T21:45:40;66816.72;;;15.59;100.00
37132;BME280;23035;50.032;21.978;2023-08-31T21:50:45;66821.22;;;15.68;100.00
37132;BME280;23035;50.032;21.978;2023-08-31T21:55:50;66939.19;;;16.79;100.00
37132;BME280;23035;50.032;21.978;2023-08-31T22:00:54;66983.38;;;17.21;100.00
37132;BME280;23035;50.032;21.978;2023-08-31T22:06:05;67034.69;;;17.72;100.00
